Terminal Aerodrome Forecast
Issued by NWS Buffalo, NY

Home | Current Version | Previous Version | Text Only | Print | Product List | Glossary On
Versions: 1 2 3 4 5 6 7 8 9 10 11 12 13 14 15 16 17 18 19 20 21 22 23 24 25
215
FTUS41 KBUF 211120
TAFART
TAF
KART 211120Z 2112/2212 VRB03KT P6SM FEW250
     FM211600 22010KT P6SM FEW200
     FM211700 23011G17KT P6SM SKC
     FM212000 23011KT P6SM SKC
     FM220000 21007KT P6SM FEW250
     FM220900 17006KT P6SM SCT200=

USA.gov is the U.S. government's official web portal to all federal, state and local government web resources and services.